createdAt,value
2022-09-14T00:04:05.031Z,9
2022-09-14T00:08:47.252Z,9
2022-09-14T00:13:29.548Z,9
2022-09-14T00:18:11.865Z,9
2022-09-14T00:22:54.070Z,4
2022-09-14T00:27:36.381Z,3
2022-09-14T00:32:18.692Z,3
2022-09-14T00:37:00.917Z,3
2022-09-14T00:41:43.214Z,3
2022-09-14T00:46:25.527Z,3
2022-09-14T00:51:07.741Z,3
2022-09-14T00:55:49.051Z,3
2022-09-14T01:00:31.360Z,3
2022-09-14T01:05:13.573Z,3
2022-09-14T01:09:55.881Z,3
2022-09-14T01:14:38.199Z,3
2022-09-14T01:19:20.506Z,3
2022-09-14T01:24:02.719Z,3
2022-09-14T01:28:45.031Z,3
2022-09-14T01:33:27.342Z,9
2022-09-14T01:38:09.551Z,9
2022-09-14T01:42:51.867Z,9
2022-09-14T01:47:34.181Z,9
2022-09-14T01:52:16.391Z,9
2022-09-14T01:56:57.699Z,9
2022-09-14T02:01:40.006Z,9
2022-09-14T02:06:22.218Z,9
2022-09-14T02:11:04.538Z,9
2022-09-14T02:15:46.844Z,9
2022-09-14T02:20:29.059Z,9
2022-09-14T02:25:11.366Z,9
2022-09-14T02:29:53.684Z,9
2022-09-14T02:34:35.892Z,9
2022-09-14T02:39:18.235Z,9
2022-09-14T02:44:00.509Z,9
2022-09-14T02:48:42.830Z,9
2022-09-14T02:53:25.044Z,9
2022-09-14T02:58:06.346Z,9
2022-09-14T03:02:48.669Z,9
2022-09-14T03:07:30.870Z,9
2022-09-14T03:12:13.183Z,9
2022-09-14T03:16:55.490Z,9
2022-09-14T03:21:37.803Z,9
2022-09-14T03:26:20.015Z,9
2022-09-14T03:31:02.327Z,9
2022-09-14T03:35:44.635Z,9
2022-09-14T03:40:26.847Z,9
2022-09-14T03:45:08.159Z,9
2022-09-14T03:49:49.469Z,9
2022-09-14T03:54:31.780Z,9
2022-09-14T03:59:14.092Z,9
2022-09-14T04:03:56.306Z,9
2022-09-14T04:08:38.618Z,9
2022-09-14T04:13:20.926Z,9
2022-09-14T04:18:03.140Z,9
2022-09-14T04:22:45.451Z,9
2022-09-14T04:27:27.768Z,9
2022-09-14T04:32:09.970Z,9
2022-09-14T04:36:52.284Z,15
2022-09-14T04:41:34.639Z,24
2022-09-14T04:46:16.807Z,42
2022-09-14T04:50:58.121Z,61
2022-09-14T04:55:40.431Z,85
2022-09-14T05:00:22.746Z,121
2022-09-14T05:05:04.956Z,207
2022-09-14T05:09:47.264Z,260
2022-09-14T05:14:29.576Z,361
2022-09-14T05:19:11.816Z,535
2022-09-14T05:23:54.147Z,769
2022-09-14T05:28:36.414Z,836
2022-09-14T05:33:17.723Z,1069
2022-09-14T05:37:59.026Z,916
2022-09-14T05:42:41.248Z,1347
2022-09-14T05:47:23.554Z,2166
2022-09-14T05:52:05.862Z,2101
2022-09-14T05:56:48.075Z,2041
2022-09-14T06:01:30.396Z,3658
2022-09-14T06:06:12.699Z,3609
2022-09-14T06:10:54.908Z,3588
2022-09-14T06:15:37.222Z,2100
2022-09-14T06:20:19.532Z,2624
2022-09-14T06:25:01.748Z,3554
2022-09-14T06:29:44.054Z,4516
2022-09-14T06:34:26.392Z,7252
2022-09-14T06:39:07.596Z,5955
2022-09-14T06:43:49.899Z,8046
2022-09-14T06:48:32.210Z,4514
2022-09-14T06:53:14.438Z,4069
2022-09-14T06:57:56.729Z,4060
2022-09-14T07:02:39.038Z,1941
2022-09-14T07:07:21.251Z,1097
2022-09-14T07:12:03.560Z,1512
2022-09-14T07:16:45.868Z,2132
2022-09-14T07:21:28.093Z,7507
2022-09-14T07:26:10.483Z,13012
2022-09-14T07:30:52.707Z,3738
2022-09-14T07:35:34.923Z,5381
2022-09-14T07:40:16.229Z,3455
2022-09-14T07:44:58.541Z,5902
2022-09-14T07:49:40.853Z,5422
2022-09-14T07:54:23.139Z,8869
2022-09-14T07:59:05.392Z,9269
2022-09-14T08:03:47.691Z,7221
2022-09-14T08:08:29.905Z,10086
2022-09-14T08:13:12.211Z,5895
2022-09-14T08:17:54.521Z,7282
2022-09-14T08:22:36.738Z,7987
2022-09-14T08:27:18.050Z,6165
2022-09-14T08:32:00.367Z,8687
2022-09-14T08:36:42.669Z,8069
2022-09-14T08:41:24.882Z,11864
2022-09-14T08:46:07.192Z,16554
2022-09-14T08:50:49.504Z,13434
2022-09-14T08:55:31.742Z,17464
2022-09-14T09:00:14.030Z,20917
2022-09-14T09:04:56.342Z,13809
2022-09-14T09:09:38.651Z,7588
2022-09-14T09:14:20.860Z,6511
2022-09-14T09:19:03.172Z,9040
2022-09-14T09:23:45.385Z,10615
2022-09-14T09:28:26.696Z,10731
2022-09-14T09:33:09.009Z,6004
2022-09-14T09:37:51.223Z,7437
2022-09-14T09:42:33.533Z,5473
2022-09-14T09:47:15.872Z,4592
2022-09-14T09:51:58.056Z,5851
2022-09-14T09:56:40.376Z,6293
2022-09-14T10:01:22.676Z,4755
2022-09-14T10:06:05.022Z,6007
2022-09-14T10:10:47.303Z,9210
2022-09-14T10:15:29.591Z,12047
2022-09-14T10:20:11.744Z,17235
2022-09-14T10:24:54.045Z,16155
2022-09-14T10:29:35.366Z,15325
2022-09-14T10:34:17.746Z,19119
2022-09-14T10:38:59.885Z,36599
2022-09-14T10:43:42.184Z,43138
2022-09-14T10:48:24.495Z,56032
2022-09-14T10:57:49.034Z,37118
2022-09-14T11:02:31.341Z,26348
2022-09-14T11:07:13.553Z,25099
2022-09-14T11:11:55.881Z,21519
2022-09-14T11:16:38.171Z,36315
2022-09-14T11:21:20.392Z,41043
2022-09-14T11:26:02.703Z,40801
2022-09-14T11:30:45.138Z,33422
2022-09-14T11:35:27.295Z,4869
2022-09-14T11:40:08.562Z,27232
2022-09-14T11:44:50.847Z,28483
2022-09-14T11:49:33.057Z,6895
2022-09-14T11:54:15.373Z,42122
2022-09-14T11:58:57.680Z,49907
2022-09-14T12:03:39.893Z,28376
2022-09-14T12:08:22.204Z,36439
2022-09-14T12:13:04.519Z,21377
2022-09-14T12:17:46.832Z,35345
2022-09-14T12:22:29.070Z,49229
2022-09-14T12:27:11.355Z,30356
2022-09-14T12:31:53.664Z,30184
2022-09-14T12:36:35.944Z,31483
2022-09-14T12:41:17.194Z,28310
2022-09-14T12:45:59.504Z,34821
2022-09-14T12:50:41.720Z,43454
2022-09-14T13:00:06.352Z,37124
2022-09-14T13:04:48.548Z,16322
2022-09-14T13:09:30.875Z,48575
2022-09-14T13:14:13.219Z,32012
2022-09-14T13:18:55.528Z,26227
2022-09-14T13:23:37.784Z,31361
2022-09-14T13:28:20.010Z,48512
2022-09-14T13:33:02.316Z,24039
2022-09-14T13:37:44.638Z,17689
2022-09-14T13:42:25.841Z,30254
2022-09-14T13:47:08.156Z,25423
2022-09-14T13:51:50.365Z,24684
2022-09-14T13:56:32.679Z,23190
2022-09-14T14:01:15.015Z,31500
2022-09-14T14:05:57.201Z,22934
2022-09-14T14:10:39.517Z,46001
2022-09-14T14:15:21.831Z,30877
2022-09-14T14:20:04.044Z,24329
2022-09-14T14:24:46.355Z,15857
2022-09-14T14:29:28.665Z,17875
2022-09-14T14:34:10.937Z,14530
2022-09-14T14:38:53.241Z,8532
2022-09-14T14:43:34.611Z,7838
2022-09-14T14:48:16.717Z,6031
2022-09-14T14:52:59.024Z,7602
2022-09-14T14:57:41.337Z,1504
2022-09-14T15:02:23.569Z,846
2022-09-14T15:07:05.869Z,4528
2022-09-14T15:11:48.222Z,7195
2022-09-14T15:16:30.378Z,5775
2022-09-14T15:21:12.698Z,4546
2022-09-14T15:25:55.124Z,376
2022-09-14T15:30:37.219Z,573
2022-09-14T15:35:19.530Z,2893
2022-09-14T15:40:01.907Z,3136
2022-09-14T15:44:43.149Z,2388
2022-09-14T15:49:25.357Z,3016
2022-09-14T15:54:07.653Z,4131
2022-09-14T15:58:50.005Z,7572
2022-09-14T16:03:32.174Z,9753
2022-09-14T16:08:14.488Z,6460
2022-09-14T16:12:56.800Z,4575
2022-09-14T16:17:39.016Z,3953
2022-09-14T16:22:21.324Z,2181
2022-09-14T16:27:03.634Z,1660
2022-09-14T16:31:45.848Z,2780
2022-09-14T16:36:28.159Z,3417
2022-09-14T16:41:10.473Z,2639
2022-09-14T16:45:51.783Z,1929
2022-09-14T16:50:33.993Z,1384
2022-09-14T16:55:16.307Z,1465
2022-09-14T16:59:58.619Z,1728
2022-09-14T17:04:40.830Z,1891
2022-09-14T17:09:23.141Z,2016
2022-09-14T17:14:05.457Z,1648
2022-09-14T17:18:47.660Z,1076
2022-09-14T17:23:29.981Z,654
2022-09-14T17:28:12.289Z,432
2022-09-14T17:32:54.502Z,278
2022-09-14T17:37:36.811Z,136
2022-09-14T17:42:19.128Z,66
2022-09-14T17:47:00.439Z,31
2022-09-14T17:51:42.648Z,18
2022-09-14T17:56:24.960Z,12
2022-09-14T18:05:49.536Z,9
2022-09-14T18:10:31.796Z,9
2022-09-14T18:15:14.106Z,9
2022-09-14T18:19:56.320Z,9
2022-09-14T18:24:38.685Z,9
2022-09-14T18:29:20.942Z,9
2022-09-14T18:34:03.157Z,9
2022-09-14T18:38:45.466Z,9
2022-09-14T18:43:27.775Z,9
2022-09-14T18:48:09.991Z,9
2022-09-14T18:52:52.301Z,9
2022-09-14T18:57:34.612Z,9
2022-09-14T19:11:41.444Z,9
2022-09-14T19:16:23.658Z,9
2022-09-14T19:21:05.979Z,9
2022-09-14T19:25:48.281Z,9
2022-09-14T19:30:30.494Z,9
2022-09-14T19:44:37.324Z,9
2022-09-14T19:54:01.949Z,9
2022-09-14T19:58:43.261Z,9
2022-09-14T20:08:07.780Z,9
2022-09-14T20:12:49.094Z,9
2022-09-14T20:17:31.305Z,9
2022-09-14T20:22:13.613Z,9
2022-09-14T20:26:55.928Z,9
2022-09-14T20:31:38.141Z,9
2022-09-14T20:36:20.599Z,9
2022-09-14T20:41:02.903Z,9
2022-09-14T20:45:45.116Z,9
2022-09-14T20:50:27.427Z,9
2022-09-14T20:55:08.737Z,9
2022-09-14T20:59:50.059Z,9
2022-09-14T21:04:32.349Z,9
2022-09-14T21:09:14.564Z,9
2022-09-14T21:13:56.888Z,9
2022-09-14T21:18:39.209Z,9
2022-09-14T21:23:21.305Z,9
2022-09-14T21:28:03.589Z,9
2022-09-14T21:32:45.886Z,9
2022-09-14T21:37:28.097Z,9
2022-09-14T21:42:10.443Z,9
2022-09-14T21:46:52.786Z,9
2022-09-14T21:51:35.031Z,9
2022-09-14T21:56:17.244Z,9
2022-09-14T22:00:58.559Z,9
2022-09-14T22:05:40.884Z,9
2022-09-14T22:10:23.084Z,9
2022-09-14T22:15:05.517Z,9
2022-09-14T22:19:47.824Z,9
2022-09-14T22:24:30.019Z,9
2022-09-14T22:29:12.314Z,9
2022-09-14T22:33:54.609Z,9
2022-09-14T22:38:36.788Z,9
2022-09-14T22:43:19.061Z,9
2022-09-14T22:48:01.370Z,9
2022-09-14T22:52:43.590Z,9
2022-09-14T22:57:25.898Z,9
2022-09-14T23:02:07.229Z,9
2022-09-14T23:06:49.513Z,9
2022-09-14T23:11:31.725Z,9
2022-09-14T23:16:14.160Z,9
2022-09-14T23:20:56.351Z,9
2022-09-14T23:25:38.599Z,9
2022-09-14T23:30:20.877Z,9
2022-09-14T23:35:03.189Z,9
2022-09-14T23:39:45.426Z,9
2022-09-14T23:44:27.729Z,9
2022-09-14T23:49:10.022Z,9
2022-09-14T23:53:52.267Z,9
2022-09-14T23:58:34.567Z,9
